Time;durP1;ratioP1;P1;durP2;ratioP2;P2;SDS_P1;SDS_P2;PMS_P1;PMS_P2;Temp;Humidity;BMP_temperature;BMP_pressure;BME280_temperature;BME280_humidity;BME280_pressure;Samples;Min_cycle;Max_cycle;Signal;HPM_P1;HPM_P2
2024/01/31 00:00:09;;;;;;;10.52;5.65;;;6.50;99.90;;;-144.05;82.29;56950.78;5094892;28;20039;-77
2024/01/31 00:02:36;;;;;;;9.15;4.45;;;6.60;99.90;;;-144.05;82.72;56963.53;5094681;28;20101;-77
2024/01/31 00:05:04;;;;;;;14.23;5.80;;;;;;;-144.05;82.79;56982.66;5095638;28;20075;-77
2024/01/31 00:07:29;;;;;;;13.35;5.82;;;4.00;99.90;;;-144.05;82.29;56957.16;5098027;28;20485;-76
2024/01/31 00:09:55;;;;;;;11.60;5.40;;;6.60;99.90;;;-144.05;82.74;56950.78;5094689;28;20073;-77
2024/01/31 00:12:21;;;;;;;11.77;5.07;;;7.50;99.90;;;-144.05;82.75;56955.03;5114598;28;20023;-77
2024/01/31 00:14:47;;;;;;;11.85;4.88;;;;;;;-144.05;82.61;56948.66;5099108;28;20028;-77
2024/01/31 00:17:14;;;;;;;13.23;5.53;;;;;;;-144.05;82.64;56986.91;5093615;28;20542;-77
2024/01/31 00:19:39;;;;;;;11.07;5.75;;;4.90;99.90;;;-144.05;82.73;56969.91;5094566;28;20067;-78
2024/01/31 00:22:06;;;;;;;10.93;5.28;;;;;;;-144.05;82.64;56976.28;5093548;28;20052;-76
2024/01/31 00:24:31;;;;;;;10.70;5.47;;;3.90;99.90;;;-144.05;82.72;56948.66;5094612;28;20130;-78
2024/01/31 00:26:58;;;;;;;14.88;6.00;;;;;;;-144.05;82.44;56952.91;5094663;28;20093;-78
2024/01/31 00:29:23;;;;;;;17.15;6.80;;;6.40;99.90;;;-144.05;82.79;56974.16;5094729;28;20028;-77
2024/01/31 00:31:49;;;;;;;11.43;6.00;;;6.70;99.90;;;-144.05;82.88;56980.53;5098832;28;20028;-77
2024/01/31 00:34:15;;;;;;;13.15;6.00;;;6.90;99.90;;;-144.05;82.90;56965.66;5095309;28;20408;-78
2024/01/31 00:36:41;;;;;;;11.07;6.25;;;;;;;-144.05;82.72;56944.41;5094130;28;20051;-77
2024/01/31 00:39:07;;;;;;;14.05;5.97;;;;;;;-144.05;82.76;56950.78;5101920;28;20024;-80
2024/01/31 00:41:34;;;;;;;14.63;7.03;;;;;;;-144.05;82.94;56942.28;5097465;28;20111;-78
2024/01/31 00:44:00;;;;;;;12.90;6.15;;;;;;;-144.05;82.86;56957.16;5114223;28;20484;-79
2024/01/31 00:46:26;;;;;;;21.65;7.85;;;;;;;-144.05;83.14;56946.53;5100853;28;20028;-77
2024/01/31 00:48:52;;;;;;;15.90;6.22;;;7.50;99.90;;;-144.05;82.79;56961.41;5095198;28;20552;-78
2024/01/31 00:51:18;;;;;;;15.07;7.68;;;6.50;99.90;;;-144.05;83.02;56950.78;5094917;28;20062;-77
2024/01/31 00:53:44;;;;;;;17.73;7.22;;;3.50;99.90;;;-144.05;83.22;56940.16;5109813;28;20023;-77
2024/01/31 00:56:10;;;;;;;14.00;7.22;;;;;;;-144.05;83.17;56961.41;5096721;28;20027;-78
2024/01/31 00:58:36;;;;;;;13.23;6.40;;;4.70;99.90;;;-144.05;83.05;56948.66;5097438;28;20416;-79
2024/01/31 01:01:02;;;;;;;17.52;8.35;;;7.20;99.90;;;-144.05;85.40;56952.91;5096374;28;20106;-79
2024/01/31 01:03:28;;;;;;;22.17;9.23;;;;;;;-144.05;84.16;56963.53;5097035;28;20028;-77
2024/01/31 01:05:54;;;;;;;15.55;7.70;;;7.50;99.90;;;-144.05;83.57;56946.53;5103916;28;20036;-80
2024/01/31 01:08:19;;;;;;;15.35;8.68;;;6.70;99.90;;;-144.05;83.29;56929.53;5094794;28;20043;-78
2024/01/31 01:10:46;;;;;;;15.02;8.52;;;;;;;-144.05;83.52;56959.28;5095190;28;20024;-77
2024/01/31 01:13:12;;;;;;;16.85;7.70;;;6.60;99.90;;;-144.05;83.39;56963.53;5094160;28;20488;-78
2024/01/31 01:15:37;;;;;;;19.00;8.65;;;7.90;99.90;;;-144.05;83.63;56961.41;5092023;28;20028;-77
2024/01/31 01:18:04;;;;;;;17.83;8.32;;;;;;;-144.05;83.20;56969.91;5093078;28;20031;-78
2024/01/31 01:20:30;;;;;;;19.83;8.90;;;;;;;-144.05;83.08;56955.03;5094146;28;20036;-77
2024/01/31 01:22:57;;;;;;;16.90;8.68;;;;;;;-144.05;83.04;56948.66;5093729;28;20065;-77
2024/01/31 01:25:23;;;;;;;20.30;9.45;;;;;;;-144.05;82.79;56948.66;5092191;28;20358;-78
2024/01/31 01:27:52;;;;;;;21.60;9.75;;;7.70;99.90;;;-144.05;82.90;56972.03;5094497;28;20595;-77
2024/01/31 01:30:21;;;;;;;18.58;9.68;;;4.00;99.90;;;-144.05;82.91;56967.78;5094953;28;20052;-76
2024/01/31 01:32:48;;;;;;;24.05;10.32;;;4.60;99.90;;;-144.05;82.82;56946.53;5096831;28;20147;-76
2024/01/31 01:35:14;;;;;;;23.58;11.13;;;6.90;99.90;;;-144.05;82.88;56944.41;5093352;28;20368;-77
2024/01/31 01:37:40;;;;;;;23.88;11.25;;;6.80;99.90;;;-144.05;82.71;56952.91;5093207;28;20020;-76
2024/01/31 01:40:09;;;;;;;20.55;11.57;;;4.90;99.90;;;-144.05;83.19;56950.78;5093804;28;20023;-76
2024/01/31 01:42:40;;;;;;;23.00;11.70;;;4.00;99.90;;;-144.05;83.62;56940.16;5100236;28;20028;-76
2024/01/31 01:45:08;;;;;;;26.15;12.07;;;7.20;99.90;;;-144.05;83.34;56957.16;5092909;28;20473;-75
2024/01/31 01:47:38;;;;;;;28.70;12.02;;;6.60;99.90;;;-144.05;83.19;56957.16;5092905;28;20028;-78
2024/01/31 01:50:05;;;;;;;22.70;11.43;;;7.50;99.90;;;-144.05;83.47;56940.16;5106656;28;20020;-78
2024/01/31 01:52:32;;;;;;;24.65;11.35;;;6.50;99.90;;;-144.05;83.50;56950.78;5099765;28;20131;-78
2024/01/31 01:55:04;;;;;;;21.70;11.00;;;4.20;99.90;;;-144.05;83.27;56946.53;5092987;28;20026;-79
2024/01/31 01:57:34;;;;;;;15.88;9.82;;;6.70;99.90;;;-144.05;83.41;56938.03;5098698;28;20034;-79
2024/01/31 02:00:01;;;;;;;23.55;11.57;;;4.10;99.90;;;-144.05;83.64;56952.91;5101969;28;20551;-79
2024/01/31 02:02:28;;;;;;;19.20;10.80;;;3.60;99.90;;;-144.05;83.71;56925.28;5092364;28;20036;-79
2024/01/31 02:04:55;;;;;;;30.15;10.60;;;;;;;-144.05;83.82;56965.66;5093917;28;20477;-80
2024/01/31 02:07:26;;;;;;;24.17;11.20;;;7.20;99.90;;;-144.05;83.88;56978.41;5093617;28;20036;-79
2024/01/31 02:09:53;;;;;;;20.45;10.30;;;6.50;99.90;;;-144.05;83.84;56963.53;5096781;28;20028;-78
2024/01/31 02:12:19;;;;;;;25.45;11.82;;;6.80;99.90;;;-144.05;83.89;56952.91;5110847;28;20028;-78
2024/01/31 02:14:47;;;;;;;24.67;11.25;;;;;;;-144.05;84.09;56967.78;5092436;28;20460;-78
2024/01/31 02:17:16;;;;;;;23.17;11.00;;;3.70;99.90;;;-144.05;84.07;56955.03;5101006;28;20032;-79
2024/01/31 02:19:42;;;;;;;23.38;10.05;;;7.30;99.90;;;-144.05;83.41;56942.28;5094089;28;20039;-78
2024/01/31 02:22:17;;;;;;;22.77;9.05;;;6.50;99.90;;;-144.05;83.81;56940.16;5092550;28;20028;-77
2024/01/31 02:24:43;;;;;;;23.45;9.57;;;;;;;-144.05;83.71;56980.53;5094171;28;20024;-78
2024/01/31 02:27:10;;;;;;;19.77;9.10;;;;;;;-144.05;83.36;56976.28;5093939;28;20055;-77
2024/01/31 02:29:39;;;;;;;21.73;9.88;;;6.40;99.90;;;-144.05;84.16;56946.53;5093027;28;20107;-77
2024/01/31 02:32:06;;;;;;;20.30;9.07;;;6.40;99.90;;;-144.05;83.47;56957.16;5094090;28;20020;-78
2024/01/31 02:34:33;;;;;;;21.50;9.73;;;6.40;99.90;;;-144.05;82.74;56929.53;5093097;28;20075;-78
2024/01/31 02:36:59;;;;;;;20.98;9.25;;;;;;;-144.05;81.99;56959.28;5093378;28;20023;-77
2024/01/31 02:39:25;;;;;;;19.83;8.80;;;4.20;99.90;;;-144.05;81.94;56955.03;5093155;28;20089;-78
2024/01/31 02:41:52;;;;;;;23.83;8.80;;;6.50;99.90;;;-144.05;81.78;56963.53;5093805;28;20028;-78
2024/01/31 02:44:20;;;;;;;21.70;8.73;;;6.50;99.90;;;-144.05;81.96;56931.66;5092749;28;20020;-76
2024/01/31 02:46:46;;;;;;;22.33;9.88;;;6.10;99.90;;;-144.05;81.64;56957.16;5090786;28;20319;-77
2024/01/31 02:49:12;;;;;;;22.98;8.55;;;;;;;-144.05;81.85;56952.91;5091812;28;20020;-77
2024/01/31 02:51:38;;;;;;;20.92;8.63;;;6.70;99.90;;;-144.05;81.34;56957.16;5095190;28;20024;-77
2024/01/31 02:54:04;;;;;;;26.15;9.13;;;;;;;-144.05;80.96;56974.16;5092463;28;20031;-76
2024/01/31 02:56:30;;;;;;;21.17;9.10;;;;;;;-144.05;80.78;56965.66;5093467;28;20497;-77
2024/01/31 02:58:57;;;;;;;11.48;6.03;;;;;;;-144.05;80.42;56980.53;5091706;28;20039;-78
2024/01/31 03:01:23;;;;;;;11.65;4.35;;;6.40;99.90;;;-144.05;79.10;56984.78;5091428;28;20028;-78
2024/01/31 03:03:49;;;;;;;8.27;3.70;;;;;;;-144.05;78.70;56965.66;5091829;28;20028;-76
2024/01/31 03:06:15;;;;;;;8.98;3.50;;;6.70;99.90;;;-144.05;78.33;56940.16;5098891;28;20030;-76
2024/01/31 03:08:41;;;;;;;9.32;2.67;;;;;;;-144.05;77.96;56995.38;5097304;28;20024;-78
2024/01/31 03:11:07;;;;;;;7.25;2.50;;;3.50;99.90;;;-144.05;77.83;56948.66;5092059;28;20099;-76
2024/01/31 03:13:33;;;;;;;5.68;2.67;;;6.70;99.90;;;-144.05;77.80;56989.00;5104948;28;20038;-77
2024/01/31 03:15:59;;;;;;;4.97;1.98;;;;;;;-144.05;77.71;56972.03;5094608;28;20401;-78
2024/01/31 03:18:25;;;;;;;9.30;2.95;;;4.60;99.90;;;-144.05;77.34;56959.28;5091572;28;20096;-77
2024/01/31 03:20:54;;;;;;;6.22;2.20;;;6.40;99.90;;;-144.05;77.82;56972.03;5091905;28;20476;-77
2024/01/31 03:23:20;;;;;;;6.60;1.90;;;;;;;-144.05;78.01;56959.28;5091192;28;20119;-77
2024/01/31 03:25:46;;;;;;;5.53;1.90;;;6.50;99.90;;;-144.05;77.98;56946.53;5090816;28;20024;-78
2024/01/31 03:28:12;;;;;;;5.22;2.10;;;3.80;99.90;;;-144.05;77.49;56978.41;5093519;28;20428;-78
2024/01/31 03:30:38;;;;;;;3.05;1.70;;;;;;;-144.05;77.70;56967.78;5091735;28;20039;-79
2024/01/31 03:33:05;;;;;;;5.30;1.73;;;;;;;-144.05;77.56;56961.41;5091687;28;20379;-78
2024/01/31 03:35:30;;;;;;;6.38;2.10;;;4.00;99.90;;;-144.05;78.00;56955.03;5090039;28;20082;-78
2024/01/31 03:37:57;;;;;;;6.63;2.30;;;;;;;-144.05;77.95;56938.03;5090233;28;20472;-78
2024/01/31 03:40:22;;;;;;;6.03;1.98;;;6.60;99.90;;;-144.05;78.03;56955.03;5091694;28;20100;-79
2024/01/31 03:42:49;;;;;;;7.70;1.85;;;;;;;-144.05;77.90;56961.41;5092034;28;20148;-78
2024/01/31 03:45:14;;;;;;;5.53;2.10;;;2.10;99.90;;;-144.05;78.15;56961.41;5091323;28;20085;-79
2024/01/31 03:47:40;;;;;;;8.02;2.20;;;6.60;99.90;;;-144.05;78.30;56957.16;5092244;28;20036;-80
2024/01/31 03:50:07;;;;;;;5.40;2.30;;;6.50;99.90;;;-144.05;78.05;56995.38;5106501;28;20020;-80
2024/01/31 03:52:35;;;;;;;5.63;2.05;;;;;;;-144.05;78.11;56955.03;5099756;28;20112;-80
2024/01/31 03:55:02;;;;;;;3.50;2.00;;;;;;;-144.05;78.19;56978.41;5099905;28;20024;-79
2024/01/31 03:57:28;;;;;;;5.68;2.30;;;;;;;-144.05;78.13;56955.03;5099537;28;20024;-80
2024/01/31 03:59:54;;;;;;;7.40;2.50;;;;;;;-144.05;78.25;56950.78;5101195;28;20039;-77
2024/01/31 04:02:22;;;;;;;5.47;2.63;;;5.80;99.90;;;-144.05;78.45;56938.03;5100846;28;20103;-77
2024/01/31 04:04:48;;;;;;;4.30;1.70;;;2.30;99.90;;;-144.05;78.27;56948.66;5101708;28;20028;-77
2024/01/31 04:07:14;;;;;;;6.85;2.30;;;;;;;-144.05;78.50;56942.28;5104104;28;20407;-77
2024/01/31 04:09:40;;;;;;;7.47;2.20;;;2.10;99.90;;;-144.05;78.83;56955.03;5100876;28;20123;-77
2024/01/31 04:12:06;;;;;;;5.15;2.30;;;7.00;99.90;;;-144.05;79.01;56957.16;5096912;28;20019;-76
2024/01/31 04:14:32;;;;;;;3.85;2.50;;;1.70;99.90;;;-144.05;78.97;56946.53;5094639;28;20118;-76
2024/01/31 04:16:58;;;;;;;5.07;2.17;;;6.70;99.90;;;-144.05;78.82;56974.16;5092013;28;20016;-75
2024/01/31 04:19:24;;;;;;;7.47;2.30;;;6.90;99.90;;;-144.05;79.39;56969.91;5096194;28;20081;-76
2024/01/31 04:21:50;;;;;;;4.53;2.10;;;;;;;-144.05;79.41;56957.16;5094545;28;20025;-77
2024/01/31 04:24:16;;;;;;;9.95;2.58;;;2.70;99.90;;;-144.05;79.31;56997.50;5091874;28;20043;-77
2024/01/31 04:26:45;;;;;;;3.90;2.45;;;2.80;99.90;;;-144.05;78.84;56952.91;5093609;28;20027;-77
2024/01/31 04:29:11;;;;;;;5.65;2.30;;;;;;;-144.05;78.74;56940.16;5094775;28;20393;-77
2024/01/31 04:31:37;;;;;;;7.70;2.45;;;2.40;99.90;;;-144.05;78.38;56984.78;5094142;28;20044;-76
2024/01/31 04:34:04;;;;;;;7.18;3.22;;;2.40;99.90;;;-144.05;78.50;56944.41;5094185;28;20020;-77
2024/01/31 04:36:32;;;;;;;5.07;3.50;;;;;;;-144.05;78.31;56952.91;5096883;28;20049;-77
2024/01/31 04:39:00;;;;;;;7.50;3.08;;;4.50;99.90;;;-144.05;78.58;56944.41;5097421;28;20028;-78
2024/01/31 04:41:26;;;;;;;7.38;2.10;;;2.90;99.90;;;-144.05;78.48;56963.53;5097512;28;20124;-77
2024/01/31 04:43:53;;;;;;;5.82;2.75;;;;;;;-144.05;78.52;56997.50;5098425;28;20606;-79
2024/01/31 04:46:19;;;;;;;5.30;2.95;;;2.20;99.90;;;-144.05;78.35;56965.66;5099305;28;20115;-77
2024/01/31 04:48:46;;;;;;;5.65;2.60;;;1.70;99.90;;;-144.05;78.73;56976.28;5097472;28;20173;-78
2024/01/31 04:51:12;;;;;;;6.18;2.78;;;6.80;99.90;;;-144.05;78.76;56974.16;5098815;28;20495;-78
2024/01/31 04:53:38;;;;;;;9.57;3.25;;;3.00;99.90;;;-144.05;78.67;56976.28;5098067;28;20027;-79
2024/01/31 04:56:10;;;;;;;9.18;2.95;;;5.70;99.90;;;-144.05;78.86;56948.66;5095994;28;20027;-78
2024/01/31 04:58:37;;;;;;;7.55;3.20;;;6.20;99.90;;;-144.05;78.70;56963.53;5096182;28;20573;-78
2024/01/31 05:01:03;;;;;;;10.23;3.78;;;2.10;99.90;;;-144.05;78.91;56963.53;5095045;28;20492;-76
2024/01/31 05:03:30;;;;;;;7.78;4.15;;;6.10;99.90;;;-144.05;78.80;56959.28;5119152;28;20028;-76
2024/01/31 05:05:55;;;;;;;10.02;4.38;;;6.50;99.90;;;-144.05;79.02;56955.03;5096918;28;20036;-76
2024/01/31 05:08:21;;;;;;;10.05;4.20;;;2.00;99.90;;;-144.05;78.82;56967.78;5094637;28;20461;-77
2024/01/31 05:10:47;;;;;;;9.13;4.03;;;6.70;99.90;;;-144.05;79.07;56957.16;5093853;28;20052;-74
2024/01/31 05:13:13;;;;;;;9.07;3.97;;;1.80;99.90;;;-144.05;79.10;56963.53;5110028;28;20020;-77
2024/01/31 05:15:40;;;;;;;15.02;5.40;;;6.40;99.90;;;-144.05;79.72;56976.28;5099261;28;20040;-76
2024/01/31 05:18:06;;;;;;;12.00;4.53;;;6.60;99.90;;;-144.05;79.90;56974.16;5094517;28;20020;-75
2024/01/31 05:20:31;;;;;;;6.70;3.28;;;2.30;99.90;;;-144.05;79.62;56969.91;5092498;28;20503;-77
2024/01/31 05:22:57;;;;;;;9.45;3.33;;;3.00;99.90;;;-144.05;79.74;56984.78;5093551;28;20032;-76
2024/01/31 05:25:23;;;;;;;4.20;2.85;;;2.10;99.90;;;-144.05;79.37;56969.91;5093413;28;20027;-77
2024/01/31 05:27:50;;;;;;;8.93;3.17;;;;;;;-144.05;79.30;56948.66;5092515;28;20051;-76
2024/01/31 05:30:16;;;;;;;7.20;2.83;;;6.30;99.90;;;-144.05;79.01;56965.66;5093524;28;20032;-76
2024/01/31 05:32:42;;;;;;;3.92;2.03;;;2.80;99.90;;;-144.05;79.15;56978.41;5091963;28;20107;-76
2024/01/31 05:35:08;;;;;;;10.13;2.58;;;2.00;99.90;;;-144.05;79.08;56946.53;5108976;28;20028;-76
2024/01/31 05:37:34;;;;;;;8.15;2.45;;;2.50;99.90;;;-144.05;79.26;56978.41;5100187;28;20397;-77
2024/01/31 05:40:00;;;;;;;7.18;2.08;;;;;;;-144.05;78.69;56957.16;5100333;28;20028;-75
2024/01/31 05:42:26;;;;;;;4.97;2.28;;;2.30;99.90;;;-144.05;78.48;56967.78;5093156;28;20504;-77
2024/01/31 05:44:53;;;;;;;4.88;2.00;;;2.50;99.90;;;-144.05;78.17;56955.03;5092171;28;20023;-77
2024/01/31 05:47:20;;;;;;;8.48;2.20;;;1.60;99.90;;;-144.05;78.33;56972.03;5092951;28;20032;-77
2024/01/31 05:49:46;;;;;;;4.45;2.10;;;2.00;99.90;;;-144.05;78.08;56989.00;5093344;28;20020;-76
2024/01/31 05:52:12;;;;;;;4.28;1.83;;;2.30;99.90;;;-144.05;78.16;56935.91;5095336;28;20035;-76
2024/01/31 05:54:40;;;;;;;7.03;1.92;;;5.50;99.90;;;-144.05;78.05;56961.41;5092149;28;20085;-77
2024/01/31 05:57:07;;;;;;;6.63;2.13;;;2.30;99.90;;;-144.05;77.82;56974.16;5093121;28;20036;-77
2024/01/31 05:59:32;;;;;;;7.07;1.85;;;1.60;99.90;;;-144.05;77.72;56963.53;5100456;28;20035;-77
2024/01/31 06:01:59;;;;;;;6.35;1.95;;;5.50;99.90;;;-144.05;77.68;56972.03;5092660;28;20049;-76
2024/01/31 06:04:25;;;;;;;22.38;12.73;;;;;;;-144.05;77.29;56984.78;5091274;28;20130;-76
2024/01/31 06:06:51;;;;;;;11.50;6.15;;;6.80;99.90;;;-144.05;77.10;56974.16;5092654;28;20024;-75
2024/01/31 06:09:17;;;;;;;5.57;2.40;;;;;;;-144.05;76.80;56989.00;5110396;28;20050;-77
2024/01/31 06:11:43;;;;;;;5.20;2.10;;;2.50;99.90;;;-144.05;76.29;56940.16;5098044;28;20493;-75
2024/01/31 06:14:09;;;;;;;7.30;2.10;;;2.80;99.90;;;-144.05;76.20;56965.66;5092586;28;20051;-77
2024/01/31 06:16:35;;;;;;;11.57;2.80;;;6.50;99.90;;;-144.05;75.98;56959.28;5093931;28;20055;-76
2024/01/31 06:19:01;;;;;;;3.88;1.90;;;6.30;99.90;;;-144.05;75.37;56974.16;5092979;28;20028;-75
2024/01/31 06:21:27;;;;;;;10.77;2.85;;;2.40;99.90;;;-144.05;75.67;56976.28;5101392;28;20126;-76
2024/01/31 06:23:54;;;;;;;6.82;1.90;;;2.40;99.90;;;-144.05;75.56;56984.78;5095222;28;20044;-76
2024/01/31 06:26:20;;;;;;;5.43;2.25;;;2.60;99.90;;;-144.05;75.79;56969.91;5096380;28;20057;-76
2024/01/31 06:28:48;;;;;;;7.10;2.00;;;6.20;99.90;;;-144.05;75.83;56967.78;5101073;28;20028;-79
2024/01/31 06:31:25;;;;;;;5.57;2.00;;;6.40;99.90;;;-144.05;75.79;56965.66;5096749;28;20613;-78
2024/01/31 06:33:51;;;;;;;7.32;1.77;;;;;;;-144.05;75.54;56950.78;5095953;28;20043;-78
2024/01/31 06:36:18;;;;;;;5.22;2.30;;;3.10;99.90;;;-144.05;75.64;56955.03;5092532;28;20047;-78
2024/01/31 06:38:46;;;;;;;6.97;2.72;;;;;;;-144.05;75.54;56982.66;5093709;28;20024;-81
2024/01/31 06:41:17;;;;;;;6.88;2.25;;;2.00;99.90;;;-144.05;75.25;56976.28;5096813;28;20031;-79
2024/01/31 06:43:44;;;;;;;7.53;2.03;;;;;;;-144.05;75.37;56974.16;5098261;28;20434;-78
2024/01/31 06:46:10;;;;;;;6.43;2.25;;;3.20;99.90;;;-144.05;75.35;56965.66;5096881;28;20036;-78
2024/01/31 06:48:37;;;;;;;8.20;2.58;;;;;;;-144.05;75.47;56995.38;5096926;28;20028;-77
2024/01/31 06:51:03;;;;;;;10.15;2.75;;;6.40;99.90;;;-144.05;75.01;56942.28;5095611;28;20435;-76
2024/01/31 06:53:29;;;;;;;5.10;3.05;;;;;;;-144.05;74.81;56999.63;5096978;28;20073;-78
2024/01/31 06:55:56;;;;;;;5.63;2.20;;;;;;;-144.05;74.55;56946.53;5096975;28;20608;-76
2024/01/31 06:58:22;;;;;;;4.03;1.85;;;;;;;-144.05;74.58;56950.78;5093675;28;20577;-75
2024/01/31 07:00:48;;;;;;;7.07;2.50;;;3.10;99.90;;;-144.05;74.39;56959.28;5092477;28;20118;-78
2024/01/31 07:03:14;;;;;;;4.20;2.08;;;;;;;-144.05;74.47;56976.28;5093681;28;21576;-78
2024/01/31 07:05:41;;;;;;;7.30;3.28;;;1.90;99.90;;;-144.05;74.93;56978.41;5093518;28;20042;-76
2024/01/31 07:08:07;;;;;;;7.15;3.15;;;1.80;99.90;;;-144.05;75.11;56961.41;5100730;28;20031;-77
2024/01/31 07:10:33;;;;;;;5.50;2.50;;;1.70;99.90;;;-144.05;75.12;56991.13;5093715;28;20020;-76
2024/01/31 07:12:59;;;;;;;6.50;2.90;;;1.80;99.90;;;-144.05;75.14;56969.91;5095031;28;20054;-75
2024/01/31 07:15:25;;;;;;;8.07;2.67;;;;;;;-144.05;74.78;56972.03;5106550;28;20031;-77
2024/01/31 07:17:51;;;;;;;9.68;3.05;;;;;;;-144.05;75.57;56974.16;5099462;28;20032;-77
2024/01/31 07:20:17;;;;;;;4.95;2.22;;;2.10;99.90;;;-144.05;75.50;56982.66;5095188;28;20028;-78
2024/01/31 07:22:44;;;;;;;5.13;2.80;;;1.50;99.90;;;-144.05;75.55;56993.25;5093135;28;20036;-76
2024/01/31 07:25:13;;;;;;;6.57;2.88;;;5.60;99.90;;;-144.05;74.93;56967.78;5111492;28;20099;-76
2024/01/31 07:27:41;;;;;;;9.45;3.15;;;6.70;99.90;;;-144.05;74.77;56967.78;5106963;28;20028;-77
2024/01/31 07:30:10;;;;;;;7.45;3.13;;;6.90;99.90;;;-144.05;75.01;56959.28;5095301;27;20024;-78
2024/01/31 07:32:38;;;;;;;5.88;3.33;;;5.70;99.90;;;-144.05;74.90;56931.66;5093336;28;20032;-77
2024/01/31 07:35:07;;;;;;;10.00;4.00;;;2.20;99.90;;;-144.05;75.45;56946.53;5092565;28;20073;-77
2024/01/31 07:37:36;;;;;;;11.35;4.32;;;2.40;99.90;;;-144.05;76.42;56972.03;5093144;28;20031;-77
2024/01/31 07:40:06;;;;;;;7.43;4.10;;;5.70;99.90;;;-144.05;76.42;56980.53;5093936;28;20046;-77
2024/01/31 07:42:32;;;;;;;7.38;3.97;;;;;;;-144.05;76.00;56993.25;5094007;28;20024;-77
2024/01/31 07:44:59;;;;;;;8.27;3.80;;;;;;;-144.05;75.86;56967.78;5093162;28;20109;-76
2024/01/31 07:47:25;;;;;;;10.07;4.20;;;2.20;99.90;;;-144.05;75.72;56969.91;5094271;28;20123;-76
2024/01/31 07:49:50;;;;;;;7.95;3.72;;;2.30;99.90;;;-144.05;76.05;56989.00;5093946;28;20030;-78
2024/01/31 07:52:17;;;;;;;8.40;4.75;;;;;;;-144.05;76.76;56982.66;5107493;28;20028;-78
2024/01/31 07:54:43;;;;;;;10.00;5.20;;;2.20;99.90;;;-144.05;76.56;56946.53;5105404;28;20035;-78
2024/01/31 07:57:09;;;;;;;14.45;5.78;;;6.40;99.90;;;-144.05;76.09;56984.78;5104731;28;20030;-76
2024/01/31 07:59:36;;;;;;;11.45;5.40;;;2.40;99.90;;;-144.05;76.19;56959.28;5094861;28;20032;-76
2024/01/31 08:02:02;;;;;;;12.57;5.50;;;7.10;99.90;;;-144.05;76.05;56931.66;5092813;28;20043;-76
2024/01/31 08:04:28;;;;;;;11.05;5.13;;;4.90;99.90;;;-144.05;76.27;56980.53;5093745;28;20107;-76
2024/01/31 08:06:54;;;;;;;13.15;4.80;;;3.00;99.90;;;-144.05;76.27;56944.41;5094986;28;20099;-76
2024/01/31 08:09:22;;;;;;;14.73;5.35;;;2.20;99.90;;;-144.05;75.77;56993.25;5098071;28;20075;-76
2024/01/31 08:11:48;;;;;;;7.47;5.10;;;;;;;-144.05;75.33;56963.53;5107650;28;20119;-78
2024/01/31 08:14:14;;;;;;;8.77;4.97;;;2.10;99.90;;;-144.05;75.48;56959.28;5094862;28;20561;-79
2024/01/31 08:16:40;;;;;;;7.10;4.70;;;6.50;99.90;;;-144.05;75.54;56950.78;5095681;28;20065;-76
2024/01/31 08:19:06;;;;;;;8.00;4.68;;;;;;;-144.05;75.35;56961.41;5096123;28;20051;-78
2024/01/31 08:21:32;;;;;;;10.60;6.50;;;7.00;99.90;;;-144.05;75.10;56963.53;5095256;28;20123;-78
2024/01/31 08:24:00;;;;;;;13.43;5.35;;;6.00;99.90;;;-144.05;75.01;56948.66;5097029;28;20055;-78
2024/01/31 08:26:26;;;;;;;13.75;10.18;;;6.70;99.90;;;-144.05;74.82;56948.66;5097291;28;20028;-78
2024/01/31 08:28:51;;;;;;;15.07;8.05;;;6.50;99.90;;;-144.05;74.68;56965.66;5096843;28;20020;-75
2024/01/31 08:31:18;;;;;;;11.15;6.63;;;;;;;-144.05;74.78;56980.53;5103338;28;20024;-77
2024/01/31 08:33:44;;;;;;;11.63;6.35;;;7.20;99.90;;;-144.05;74.71;56997.50;5107201;28;20131;-76
2024/01/31 08:36:09;;;;;;;18.52;9.05;;;6.80;99.90;;;-144.05;74.38;56942.28;5104587;28;20080;-77
2024/01/31 08:38:37;;;;;;;13.93;7.47;;;6.90;99.90;;;-144.05;74.27;56967.78;5108813;28;20094;-75
2024/01/31 08:41:05;;;;;;;12.93;7.72;;;;;;;-144.05;73.95;56965.66;5104242;28;20020;-79
2024/01/31 08:43:31;;;;;;;15.20;7.07;;;7.20;99.90;;;-144.05;74.08;56972.03;5102747;28;20028;-78
2024/01/31 08:45:56;;;;;;;15.75;6.78;;;4.40;99.90;;;-144.05;74.11;56931.66;5113237;28;20023;-77
2024/01/31 08:48:23;;;;;;;17.40;8.95;;;;;;;-144.05;73.93;56961.41;5104291;28;20504;-78
2024/01/31 08:50:49;;;;;;;19.65;10.60;;;7.10;99.90;;;-144.05;73.89;56972.03;5097020;28;20109;-77
2024/01/31 08:53:14;;;;;;;16.42;8.85;;;4.10;99.90;;;-144.05;73.75;56969.91;5103478;28;20035;-77
2024/01/31 08:55:41;;;;;;;12.88;8.13;;;;;;;-144.05;73.92;56980.53;5096453;28;20032;-77
2024/01/31 08:58:07;;;;;;;13.50;8.77;;;6.80;99.90;;;-144.05;73.94;56965.66;5096135;28;20054;-77
2024/01/31 09:00:32;;;;;;;13.68;7.97;;;7.10;99.90;;;-144.05;73.86;56974.16;5109608;28;20028;-78
2024/01/31 09:02:59;;;;;;;16.10;8.32;;;;;;;-144.05;73.68;56967.78;5099089;28;20598;-79
2024/01/31 09:05:24;;;;;;;16.02;9.38;;;4.50;99.90;;;-144.05;73.79;56978.41;5096187;28;20028;-77
2024/01/31 09:07:50;;;;;;;15.40;8.25;;;6.90;99.90;;;-144.05;73.91;56982.66;5095568;28;20039;-77
2024/01/31 09:10:16;;;;;;;12.52;7.20;;;7.10;99.90;;;-144.05;73.87;56963.53;5104443;28;20385;-75
2024/01/31 09:12:42;;;;;;;22.27;8.45;;;6.80;99.90;;;-144.05;73.50;56969.91;5096780;28;20028;-80
2024/01/31 09:15:09;;;;;;;13.50;7.85;;;;;;;-144.05;73.62;56963.53;5096597;28;20113;-77
2024/01/31 09:17:35;;;;;;;14.68;8.15;;;;;;;-144.05;73.75;56957.16;5094969;28;20066;-77
2024/01/31 09:20:02;;;;;;;12.85;8.07;;;;;;;-144.05;73.29;56980.53;5095410;28;20039;-79
2024/01/31 09:22:28;;;;;;;12.38;6.80;;;4.40;99.90;;;-144.05;73.55;56961.41;5095178;28;20032;-76
2024/01/31 09:24:54;;;;;;;14.00;7.97;;;4.40;99.90;;;-144.05;73.36;56972.03;5111372;28;20024;-78
2024/01/31 09:27:19;;;;;;;15.32;8.63;;;6.90;99.90;;;-144.05;73.49;56969.91;5098136;28;20026;-78
2024/01/31 09:29:47;;;;;;;14.30;8.48;;;6.30;99.90;;;-144.05;73.23;56974.16;5100767;28;20135;-78
2024/01/31 09:32:14;;;;;;;16.85;7.88;;;7.40;99.90;;;-144.05;73.40;56969.91;5103855;28;20036;-77
2024/01/31 09:34:41;;;;;;;19.67;8.32;;;7.20;99.90;;;-144.05;73.58;56980.53;5094758;28;20032;-77
2024/01/31 09:37:07;;;;;;;17.60;8.93;;;7.20;99.90;;;-144.05;73.84;56991.13;5103649;28;20028;-77
2024/01/31 09:39:33;;;;;;;17.58;8.88;;;5.00;99.90;;;-144.05;73.23;56948.66;5096690;28;20104;-76
2024/01/31 09:41:59;;;;;;;13.77;8.35;;;7.30;99.90;;;-144.05;72.66;56974.16;5096331;28;20119;-76
2024/01/31 09:44:27;;;;;;;14.45;8.65;;;6.90;99.90;;;-144.05;72.33;56986.91;5104522;28;20022;-79
2024/01/31 09:46:57;;;;;;;14.75;8.43;;;4.20;99.90;;;-144.05;72.50;56965.66;5095385;28;20039;-79
2024/01/31 09:49:23;;;;;;;14.95;7.97;;;4.10;99.90;;;-144.05;71.87;56984.78;5096521;28;20041;-77
2024/01/31 09:51:49;;;;;;;14.30;8.35;;;4.10;99.90;;;-144.05;71.13;56967.78;5095077;28;20051;-78
2024/01/31 09:54:18;;;;;;;14.20;8.05;;;;;;;-144.05;70.79;56965.66;5095137;28;20057;-78
2024/01/31 09:56:44;;;;;;;13.90;8.35;;;3.90;99.90;;;-144.05;71.06;56957.16;5093818;28;20023;-78
2024/01/31 09:59:10;;;;;;;14.77;8.48;;;;;;;-144.05;70.91;56963.53;5100249;28;20024;-78
2024/01/31 10:01:39;;;;;;;15.80;8.65;;;5.20;99.90;;;-144.05;70.68;56997.50;5107309;28;20035;-78
2024/01/31 10:04:05;;;;;;;13.80;7.95;;;7.60;99.90;;;-144.05;70.58;56967.78;5106030;28;20028;-78
2024/01/31 10:06:32;;;;;;;18.20;8.73;;;;;;;-144.05;69.97;56967.78;5103764;28;20024;-77
2024/01/31 10:08:58;;;;;;;13.93;7.95;;;;;;;-144.05;69.53;56963.53;5097710;28;20024;-76
2024/01/31 10:11:29;;;;;;;14.88;8.50;;;4.60;99.90;;;-144.05;68.92;56946.53;5111303;28;20020;-77
2024/01/31 10:13:56;;;;;;;14.57;8.40;;;7.50;99.90;;;-144.05;68.55;56950.78;5105053;28;20024;-76
2024/01/31 10:16:21;;;;;;;14.38;7.70;;;7.10;99.90;;;-144.05;68.68;56984.78;5095947;28;20051;-76
2024/01/31 10:18:47;;;;;;;12.93;7.82;;;;;;;-144.05;68.65;56982.66;5095976;28;20580;-77
2024/01/31 10:21:19;;;;;;;14.77;8.13;;;6.40;99.90;;;-144.05;69.22;56976.28;5095827;28;20070;-77